x

9441102 - Westport, Wa (wptw1) Weather Station

3:30 - Mon 24th Apr 2017 All times are PDT. -7 hours from GMT.

  • Wind
    11mph, 15mph gusts
  • Sea Temp 52°f
  • Luft Temp 44°f
  • Sea Pressure 1006.3mb
  • 9441102 - Westport, Wa
  • 9441102 - Westport, Wa

More Historic Weather Station data

Upgrade to MSW Pro to gain access to the past 30 days of data for over 8000 Wavebouys and Weather Stations around the globe.

Join Pro

Comparision Forecast

View Surf forecast
   
Mo 04/24 3:30 11 15 mph 1006.3mb 52f 44f
3:24 9 13 mph 1006.3mb 52f 44f
3:18 10 13 mph 1006.4mb 52f 44f
3:12 9 13 mph 1006.5mb 52f 45f
3:06 9 11 mph 1006.5mb 52f 45f
3:00 8 11 mph 1006.6mb 52f 45f
2:36 8 10 mph 1006.7mb 52f 45f
2:30 8 13 mph 1006.8mb 52f 45f
2:24 9 13 mph 1006.9mb 52f 45f
2:18 7 8 mph 1007mb 52f 45f
2:12 8 10 mph 1007mb 52f 45f
2:06 7 9 mph 1007.1mb 52f 45f
2:00 6 9 mph 1007.1mb 52f 45f
1:36 7 9 mph 1007.4mb 52f 46f
1:30 6 11 mph 1007.4mb 52f 46f
1:24 6 9 mph 1007.5mb 52f 46f
1:18 7 11 mph 1007.6mb 52f 46f
1:12 9 15 mph 1007.6mb 52f 46f
1:06 9 14 mph 1007.7mb 52f 46f
1:00 8 14 mph 1007.7mb 52f 46f
12:36 10 17 mph 1007.8mb 52f 47f
12:30 11 16 mph 1007.8mb 52f 46f
12:24 8 11 mph 1007.8mb 52f 46f
12:18 7 11 mph 1007.9mb 52f 46f
12:12 10 16 mph 1008mb 52f 47f
12:06 10 15 mph 1008mb 52f 46f
12:00 11 17 mph 1008.1mb 52f 46f
So 04/23 11:36 11 16 mph 1008.2mb 52f 47f
11:30 13 20 mph 1008.3mb 52f 46f
11:24 16 21 mph 1008.3mb 52f 47f
11:18 9 14 mph 1008.3mb 52f 48f
11:12 10 15 mph 1008.4mb 52f 48f
11:06 13 16 mph 1008.5mb 52f 48f
11:00 11 17 mph 1008.5mb 52f 48f
10:36 14 17 mph 1008.7mb 52f 48f
10:30 14 17 mph 1008.7mb 53f 48f
10:24 11 16 mph 1008.8mb 53f 48f
10:18 11 20 mph 1008.9mb 53f 48f
10:12 15 20 mph 1008.9mb 53f 48f
10:06 14 17 mph 1008.9mb 53f 48f
10:00 10 14 mph 1009mb 53f 48f
9:36 11 18 mph 1009.2mb 53f 47f
9:30 13 18 mph 1009.1mb 53f 47f
9:24 11 15 mph 1009.1mb 53f 47f
9:18 13 18 mph 1009.1mb 53f 47f
9:12 11 16 mph 1009.2mb 53f 47f
9:06 14 18 mph 1009.2mb 53f 47f
9:00 15 20 mph 1009.1mb 53f 47f
8:36 14 18 mph 1009mb 53f 48f
8:30 15 22 mph 1009.1mb 53f 48f
8:24 15 20 mph 1009.1mb 53f 48f
8:18 16 21 mph 1009.2mb 53f 48f
8:12 14 17 mph 1009.2mb 53f 47f
8:06 13 18 mph 1009.2mb 53f 47f
8:00 13 16 mph 1009.2mb 53f 47f
7:36 14 18 mph 1009.2mb 53f 47f
7:30 13 16 mph 1009.2mb 53f 47f
7:24 16 23 mph 1009.3mb 53f 46f
7:18 23 29 mph 1009.2mb 53f 47f
7:12 14 20 mph 1009.2mb 53f 49f
7:06 17 22 mph 1009.3mb 53f 48f
7:00 17 21 mph 1009.4mb 53f 48f
6:36 16 20 mph 1009.6mb 53f 48f
6:30 16 20 mph 1009.6mb 53f 48f
6:24 16 22 mph 1009.7mb 53f 47f
6:18 16 23 mph 1009.7mb 53f 48f
6:12 17 22 mph 1009.8mb 53f 48f
6:06 14 22 mph 1009.8mb 53f 48f
6:00 13 17 mph 1009.8mb 53f 47f
5:36 15 22 mph 1010mb 53f 47f
5:30 16 22 mph 1010mb 53f 47f
5:24 16 21 mph 1010mb 53f 47f
5:18 16 22 mph 1010.1mb 53f 48f
5:12 15 23 mph 1010.1mb 53f 48f
5:06 13 21 mph 1010.1mb 53f 48f
5:00 16 21 mph 1010.2mb 53f 47f
4:36 17 23 mph 1010.2mb 53f 48f
4:30 17 23 mph 1010.2mb 53f 49f
4:24 18 24 mph 1010.2mb 53f 49f
4:18 16 21 mph 1010.3mb 53f 48f
4:12 17 22 mph 1010.3mb 53f 49f
4:06 15 22 mph 1010.4mb 53f 49f
4:00 18 23 mph 1010.4mb 53f 48f
3:36 20 26 mph 1010.5mb 53f 48f
3:30 17 24 mph 1010.4mb 53f 49f
3:24 15 21 mph 1010.5mb 53f 49f
3:18 14 21 mph 1010.4mb 53f 49f
3:12 14 21 mph 1010.5mb 53f 49f
3:06 14 21 mph 1010.5mb 53f 49f
3:00 16 20 mph 1010.5mb 53f 49f
2:36 14 17 mph 1010.5mb 53f 48f
2:30 14 20 mph 1010.6mb 53f 47f
2:24 15 20 mph 1010.6mb 53f 47f
2:18 14 20 mph 1010.7mb 53f 48f
2:12 16 20 mph 1010.6mb 53f 48f
2:06 16 20 mph 1010.6mb 53f 48f
2:00 14 18 mph 1010.6mb 53f 48f
1:36 14 20 mph 1010.5mb 52f 48f
1:30 18 22 mph 1010.5mb 52f 48f
1:24 17 22 mph 1010.6mb 52f 48f
1:18 18 23 mph 1010.6mb 52f 48f
1:12 20 23 mph 1010.5mb 53f 48f
1:06 21 24 mph 1010.4mb 52f 48f
1:00 17 22 mph 1010.4mb 52f 48f
12:36 13 16 mph 1010.4mb 52f 48f
12:30 13 17 mph 1010.4mb 52f 48f
12:24 16 21 mph 1010.4mb 52f 48f
12:18 17 24 mph 1010.4mb 52f 48f
12:12 18 25 mph 1010.3mb 52f 49f
12:06 17 23 mph 1010.4mb 52f 48f
12:00 16 23 mph 1010.4mb 52f 48f
11:36 15 23 mph 1010.3mb 52f 49f
11:30 15 24 mph 1010.3mb 52f 49f
11:24 14 20 mph 1010.3mb 52f 49f
11:18 15 21 mph 1010.3mb 52f 49f
11:12 14 25 mph 1010.3mb 52f 49f
11:06 17 23 mph 1010.4mb 52f 49f
11:00 15 23 mph 1010.4mb 52f 49f
10:36 10 18 mph 1010.4mb 52f 48f
10:30 14 22 mph 1010.4mb 52f 49f
10:24 16 23 mph 1010.3mb 53f 49f
10:18 13 18 mph 1010.4mb 53f 48f
10:12 9 15 mph 1010.2mb 53f 48f
10:06 9 18 mph 1010.3mb 53f 48f
10:00 9 17 mph 1010.4mb 53f 48f
9:36 10 15 mph 1010.3mb 53f 48f
9:30 11 15 mph 1010.3mb 53f 48f
9:24 10 14 mph 1010.3mb 53f 48f
9:18 14 18 mph 1010.3mb 53f 47f
9:12 11 14 mph 1010.3mb 53f 47f
9:06 8 9 mph 1010.4mb 53f 47f
9:00 8 11 mph 1010.4mb 53f 47f
8:36 10 14 mph 1010.7mb 53f 47f
8:30 10 13 mph 1010.8mb 53f 47f
8:24 10 15 mph 1010.8mb 53f 47f
8:18 9 11 mph 1010.9mb 53f 48f
8:12 10 13 mph 1011mb 53f 48f
8:06 10 13 mph 1011mb 53f 48f
8:00 9 11 mph 1011mb 53f 48f
7:36 11 14 mph 1011.2mb 53f 48f
7:30 10 13 mph 1011.3mb 53f 48f
7:24 10 14 mph 1011.3mb 53f 47f
7:18 9 13 mph 1011.4mb 53f 47f
7:12 9 13 mph 1011.4mb 53f 47f
7:06 9 13 mph 1011.5mb 53f 47f
7:00 8 13 mph 1011.5mb 53f 47f
6:36 9 13 mph 1011.7mb 53f 47f
6:30 7 11 mph 1011.8mb 53f 47f
6:24 9 11 mph 1011.7mb 53f 47f
6:18 9 11 mph 1011.8mb 53f 47f
6:12 8 11 mph 1011.8mb 53f 47f
6:06 8 13 mph 1011.8mb 53f 47f
6:00 8 11 mph 1011.9mb 53f 48f
5:36 7 10 mph 1012.1mb 53f 48f
5:30 8 13 mph 1012.1mb 53f 48f
5:24 6 8 mph 1012.2mb 53f 48f
5:18 7 10 mph 1012.2mb 53f 48f
5:12 7 11 mph 1012.3mb 53f 48f
5:06 8 10 mph 1012.4mb 53f 48f
5:00 7 9 mph 1012.4mb 53f 48f
4:36 6 8 mph 1012.6mb 53f 48f
4:30 6 8 mph 1012.6mb 53f 48f
4:24 7 8 mph 1012.7mb 53f 48f
4:18 5 8 mph 1012.7mb 53f 48f
4:12 7 8 mph 1012.8mb 53f 48f
4:06 7 8 mph 1012.9mb 53f 48f
4:00 6 7 mph 1012.9mb 53f 48f
3:36 6 9 mph 1013.2mb 53f 49f
3:30 9 14 mph 1013.3mb 53f 49f
3:24 7 11 mph 1013.4mb 53f 49f
3:18 8 11 mph 1013.4mb 53f 49f
3:12 7 13 mph 1013.5mb 53f 49f
3:06 8 14 mph 1013.6mb 53f 49f
3:00 7 11 mph 1013.6mb 53f 49f
2:36 7 10 mph 1013.8mb 53f 49f
2:30 8 13 mph 1013.9mb 53f 49f
2:24 10 14 mph 1014mb 53f 49f
2:18 9 11 mph 1014mb 53f 49f
2:12 6 10 mph 1014.1mb 53f 49f
2:06 8 13 mph 1014.1mb 53f 49f
2:00 11 15 mph 1014.2mb 53f 49f
1:36 11 14 mph 1014.2mb 53f 49f
1:30 9 13 mph 1014.3mb 53f 50f
1:24 11 14 mph 1014.3mb 53f 50f
1:18 11 14 mph 1014.3mb 53f 50f
1:12 10 14 mph 1014.3mb 53f 49f
1:06 9 13 mph 1014.3mb 53f 49f
1:00 8 11 mph 1014.3mb 53f 49f
12:36 9 13 mph 1014.2mb 53f 49f
12:30 10 15 mph 1014.2mb 53f 49f
12:24 10 15 mph 1014.2mb 53f 49f
12:18 9 14 mph 1014.2mb 53f 49f
12:12 10 14 mph 1014.3mb 53f 49f
12:06 11 15 mph 1014.3mb 53f 49f
12:00 10 16 mph 1014.3mb 53f 48f
Sa 04/22 11:36 10 15 mph 1014.5mb 53f 49f
11:30 14 17 mph 1014.5mb 53f 49f
11:24 11 15 mph 1014.5mb 53f 49f
11:18 9 13 mph 1014.5mb 53f 49f
11:12 10 14 mph 1014.4mb 53f 49f
11:06 10 14 mph 1014.4mb 53f 49f
11:00 9 15 mph 1014.4mb 53f 50f
10:36 13 16 mph 1014.5mb 53f 50f
10:30 11 15 mph 1014.5mb 53f 50f
10:24 13 16 mph 1014.6mb 53f 50f
10:18 13 17 mph 1014.6mb 53f 50f
10:12 10 20 mph 1014.5mb 53f 50f
10:06 13 18 mph 1014.5mb 53f 50f
10:00 11 18 mph 1014.5mb 53f 50f
9:36 11 17 mph 1014.4mb 53f 50f
9:30 13 20 mph 1014.3mb 53f 50f
9:24 14 18 mph 1014.2mb 53f 50f
9:18 13 18 mph 1014.2mb 53f 50f
9:12 16 20 mph 1014.2mb 53f 50f
9:06 14 18 mph 1014.1mb 53f 49f
9:00 14 18 mph 1014.1mb 53f 50f
8:36 15 22 mph 1013.9mb 53f 49f
8:30 16 23 mph 1013.8mb 53f 49f
8:24 17 25 mph 1013.8mb 53f 50f
8:18 17 22 mph 1013.7mb 53f 50f
8:12 14 18 mph 1013.7mb 53f 50f
8:06 16 20 mph 1013.7mb 53f 51f
8:00 16 23 mph 1013.7mb 53f 51f
7:36 15 20 mph 1013.7mb 53f 51f
7:30 15 22 mph 1013.6mb 53f 51f
7:24 16 20 mph 1013.6mb 53f 51f
7:18 14 21 mph 1013.6mb 53f 50f
7:12 13 18 mph 1013.6mb 53f 50f
7:06 15 18 mph 1013.6mb 53f 50f
7:00 16 21 mph 1013.5mb 53f 50f
6:36 16 21 mph 1013.4mb 53f 51f
6:30 18 25 mph 1013.4mb 53f 51f
6:24 18 25 mph 1013.4mb 53f 51f
6:18 18 25 mph 1013.4mb 53f 51f
6:12 17 25 mph 1013.4mb 53f 51f
6:06 18 25 mph 1013.4mb 53f 51f
6:00 17 23 mph 1013.4mb 53f 51f
5:36 17 25 mph 1013.4mb 53f 51f
5:30 20 24 mph 1013.3mb 53f 51f
5:24 20 25 mph 1013.4mb 53f 51f
5:18 18 26 mph 1013.3mb 53f 52f
5:12 22 29 mph 1013.3mb 53f 52f
5:06 21 28 mph 1013.3mb 53f 51f
5:00 20 26 mph 1013.2mb 53f 52f
4:36 20 26 mph 1013mb 53f 52f
4:30 22 28 mph 1013mb 53f 52f
4:24 18 26 mph 1012.9mb 53f 52f
4:18 20 29 mph 1012.9mb 53f 52f
4:12 20 26 mph 1012.8mb 53f 52f
4:06 20 28 mph 1012.8mb 53f 52f
4:00 20 26 mph 1012.7mb 53f 52f
3:36 20 25 mph 1012.4mb 53f 53f
3:30 18 29 mph 1012.4mb 53f 53f
3:24 21 29 mph 1012.4mb 53f 52f
3:18 22 32 mph 1012.3mb 53f 52f
3:12 21 31 mph 1012.2mb 53f 52f
3:06 21 30 mph 1012mb 53f 52f
3:00 22 26 mph 1011.9mb 53f 52f
2:36 18 26 mph 1011.6mb 53f 51f
2:30 18 28 mph 1011.5mb 53f 52f
2:24 20 26 mph 1011.3mb 53f 52f
2:18 21 30 mph 1011.2mb 53f 52f
2:12 23 31 mph 1011.1mb 53f 52f
2:06 22 31 mph 1010.9mb 53f 52f
2:00 21 30 mph 1010.8mb 53f 52f
1:36 23 31 mph 1010.3mb 53f 51f
1:30 22 32 mph 1010.1mb 53f 51f
1:24 22 28 mph 1009.9mb 53f 51f
1:18 21 29 mph 1009.8mb 53f 51f
1:12 14 22 mph 1009.7mb 53f 50f
1:06 13 22 mph 1009.6mb 52f 50f
1:00 13 21 mph 1009.5mb 53f 50f
12:36 14 26 mph 1009mb 52f 50f
12:30 15 22 mph 1009mb 52f 50f
12:24 13 18 mph 1009mb 52f 50f
12:18 11 20 mph 1008.9mb 52f 51f
12:12 11 23 mph 1008.7mb 53f 51f
12:06 15 22 mph 1008.7mb 53f 51f
12:00 15 22 mph 1008.7mb 53f 51f
11:36 8 11 mph 1008.9mb 52f 50f
11:30 9 11 mph 1008.8mb 52f 50f
11:24 8 13 mph 1008.9mb 52f 50f
11:18 9 11 mph 1009mb 52f 49f
11:12 8 10 mph 1008.9mb 52f 49f
11:06 7 10 mph 1008.9mb 52f 49f
11:00 7 10 mph 1008.9mb 52f 49f
10:36 7 10 mph 1009mb 52f 48f
10:30 8 10 mph 1009.1mb 52f 48f
10:24 9 11 mph 1009mb 52f 48f
10:18 6 9 mph 1009mb 52f 48f
10:12 5 11 mph 1008.9mb 52f 48f
10:06 9 13 mph 1008.9mb 52f 48f
10:00 8 13 mph 1008.8mb 52f 48f
9:36 7 10 mph 1008.7mb 52f 48f
9:30 8 11 mph 1008.9mb 52f 48f
9:24 7 9 mph 1008.9mb 52f 48f
9:18 8 13 mph 1008.9mb 52f 48f
9:12 9 13 mph 1008.8mb 52f 48f
9:06 13 16 mph 1009mb 52f 48f
9:00 13 21 mph 1009mb 52f 49f
8:36 14 18 mph 1009mb 52f 48f
8:30 11 16 mph 1008.9mb 52f 48f
8:24 11 16 mph 1008.7mb 52f 48f
8:18 10 15 mph 1008.6mb 53f 47f
8:12 10 17 mph 1009.1mb 53f 47f
8:06 13 17 mph 1009.1mb 53f 48f
8:00 16 24 mph 1009.1mb 53f 49f
7:36 15 20 mph 1009mb 53f 51f
7:30 13 17 mph 1008.8mb 53f 51f
7:24 14 20 mph 1008.7mb 53f 52f
7:18 15 22 mph 1008.5mb 53f 53f
7:12 15 20 mph 1008.4mb 53f 54f
7:06 15 23 mph 1008.2mb 53f 55f
7:00 9 14 mph 1008mb 53f 55f
6:36 10 14 mph 1007.5mb 53f 55f
6:30 9 14 mph 1007.4mb 53f 55f
6:24 11 13 mph 1007.2mb 53f 56f
6:18 10 15 mph 1007.1mb 53f 56f
6:12 10 14 mph 1007mb 53f 56f
6:06 9 11 mph 1006.9mb 53f 56f
6:00 9 15 mph 1006.9mb 53f 56f
5:36 20 25 mph 1006.6mb 53f 56f
5:30 21 28 mph 1006.7mb 53f 56f
5:24 20 26 mph 1006.7mb 53f 56f
5:18 22 29 mph 1006.5mb 53f 56f
5:12 20 28 mph 1006.7mb 53f 56f
5:06 21 25 mph 1007mb 53f 56f
5:00 20 24 mph 1007.1mb 53f 56f
4:36 16 25 mph 1007.4mb 53f 56f
4:30 22 30 mph 1007.4mb 53f 56f
4:24 24 28 mph 1007.3mb 53f 56f
4:18 21 29 mph 1007.4mb 53f 56f
4:12 24 30 mph 1007.6mb 53f 56f
4:06 22 26 mph 1007.9mb 53f 56f
4:00 21 26 mph 1008mb 53f 56f
3:36 22 29 mph 1008.3mb 53f 56f
3:30 21 25 mph 1008.4mb 53f 56f
3:24 22 26 mph 1008.5mb 53f 56f
3:18 20 28 mph 1008.6mb 53f 56f
3:12 23 31 mph 1008.6mb 53f 56f
3:06 18 28 mph 1008.8mb 53f 56f
3:00 23 29 mph 1008.8mb 53f 56f
2:36 22 29 mph 1009.3mb 53f 57f
2:30 23 28 mph 1009.5mb 53f 57f
2:24 21 25 mph 1009.7mb 53f 56f
2:18 20 24 mph 1009.8mb 53f 56f
2:12 22 26 mph 1009.8mb 53f 57f
2:06 22 26 mph 1010mb 53f 57f
2:00 22 25 mph 1010.1mb 53f 57f
1:36 22 26 mph 1010.6mb 53f 57f
1:30 22 28 mph 1010.9mb 53f 57f
1:24 23 26 mph 1010.9mb 53f 57f
1:18 22 28 mph 1011.1mb 53f 57f
1:12 21 28 mph 1011.1mb 53f 57f
1:06 23 28 mph 1011.1mb 53f 57f
1:00 22 26 mph 1011.3mb 53f 56f
12:36 18 23 mph 1011.7mb 53f 56f
12:30 15 22 mph 1011.8mb 53f 56f
12:24 17 23 mph 1011.9mb 53f 56f
12:18 20 24 mph 1012mb 53f 57f
12:12 22 25 mph 1012mb 53f 57f
12:06 22 25 mph 1012.1mb 52f 57f
12:00 23 28 mph 1012.1mb 52f 57f
Fr 04/21 11:36 24 29 mph 1012.4mb 52f 58f
11:30 22 31 mph 1012.6mb 52f 58f
11:24 22 30 mph 1012.7mb 52f 58f
11:18 25 32 mph 1012.7mb 52f 58f
11:12 25 32 mph 1012.8mb 52f 58f
11:06 26 30 mph 1013mb 52f 58f
11:00 22 30 mph 1013.1mb 52f 58f
10:36 23 29 mph 1013.7mb 52f 59f
10:30 17 23 mph 1013.9mb 52f 59f
10:24 20 25 mph 1013.9mb 52f 59f
10:18 18 23 mph 1013.9mb 52f 59f
10:12 18 28 mph 1013.8mb 52f 59f
10:06 21 33 mph 1013.9mb 52f 59f
10:00 24 31 mph 1014mb 52f 59f
9:36 18 22 mph 1014.4mb 52f 58f
9:30 17 21 mph 1014.5mb 52f 58f
9:24 14 22 mph 1014.6mb 52f 58f
9:18 17 22 mph 1014.6mb 52f 59f
9:12 17 21 mph 1014.8mb 52f 59f
9:06 16 20 mph 1014.9mb 52f 59f
9:00 15 20 mph 1014.9mb 53f 59f
8:36 14 21 mph 1015.3mb 53f 60f
8:30 17 22 mph 1015.3mb 53f 60f
8:24 17 21 mph 1015.3mb 53f 60f
8:18 17 21 mph 1015.5mb 53f 60f
8:12 17 23 mph 1015.7mb 53f 61f
8:06 20 24 mph 1015.8mb 53f 61f
8:00 17 23 mph 1015.8mb 53f 61f
7:36 15 21 mph 1016.3mb 54f 61f
7:30 16 20 mph 1016.3mb 54f 62f
7:24 17 21 mph 1016.4mb 54f 62f
7:18 16 21 mph 1016.5mb 54f 62f
7:12 16 21 mph 1016.6mb 54f 62f
7:06 16 22 mph 1016.7mb 54f 63f
7:00 15 20 mph 1016.9mb 55f 62f
6:36 14 18 mph 1017.5mb 54f 62f
6:30 15 20 mph 1017.6mb 54f 63f
6:24 17 22 mph 1017.6mb 54f 62f
6:18 17 23 mph 1017.7mb 54f 62f
6:12 20 23 mph 1017.8mb 54f 62f
6:06 18 25 mph 1017.9mb 54f 63f
6:00 20 23 mph 1018mb 54f 63f
5:36 18 24 mph 1018.4mb 54f 63f
5:30 18 23 mph 1018.5mb 54f 63f
5:24 14 20 mph 1018.6mb 54f 64f
5:18 17 22 mph 1018.7mb 54f 64f
5:12 16 22 mph 1018.8mb 54f 64f
5:06 14 22 mph 1018.9mb 54f 64f
5:00 15 23 mph 1019mb 54f 64f
4:36 13 18 mph 1019.3mb 54f 64f
4:30 14 21 mph 1019.4mb 54f 64f
4:24 17 26 mph 1019.4mb 54f 64f
4:18 16 21 mph 1019.6mb 54f 65f
4:12 16 24 mph 1019.6mb 54f 64f
4:06 16 23 mph 1019.7mb 54f 64f
4:00 14 21 mph 1019.8mb 54f 63f
3:36 15 21 mph 1020.4mb 54f 62f
3:30 14 21 mph 1020.4mb 54f 62f
3:24 15 22 mph 1020.7mb 54f 64f
3:18 15 23 mph 1020.8mb 54f 62f
3:12 14 22 mph 1020.8mb 54f 63f
3:06 11 24 mph 1020.9mb 54f 63f
3:00 13 22 mph 1021.1mb 54f 62f
2:36 17 24 mph 1021.7mb 54f 60f
2:30 15 26 mph 1021.9mb 54f 60f
2:24 18 25 mph 1022.1mb 54f 59f
2:18 17 25 mph 1022.1mb 54f 59f
2:12 18 28 mph 1022.3mb 54f 59f
2:06 18 25 mph 1022.4mb 54f 58f
2:00 21 28 mph 1022.6mb 54f 58f
1:36 20 28 mph 1023.1mb 54f 57f
1:30 22 26 mph 1023.3mb 54f 57f
1:24 21 26 mph 1023.4mb 54f 57f
1:18 21 28 mph 1023.6mb 53f 56f
1:12 22 28 mph 1023.7mb 53f 56f
1:06 21 26 mph 1023.8mb 53f 56f
1:00 22 28 mph 1023.9mb 53f 56f
12:36 20 29 mph 1024.4mb 53f 55f
12:30 22 28 mph 1024.5mb 53f 55f
12:24 18 25 mph 1024.5mb 53f 55f
12:18 20 28 mph 1024.6mb 53f 54f
12:12 21 30 mph 1024.8mb 53f 54f
12:06 22 28 mph 1025mb 53f 54f
12:00 23 29 mph 1025mb 53f 53f
11:36 22 28 mph 1025.5mb 53f 52f
11:30 16 24 mph 1025.6mb 53f 52f
11:24 18 24 mph 1025.9mb 53f 52f
11:18 18 23 mph 1026mb 52f 52f
11:12 17 24 mph 1026.2mb 52f 51f
11:06 20 24 mph 1026.2mb 52f 51f
11:00 20 25 mph 1026.4mb 52f 51f
10:36 18 24 mph 1026.7mb 52f 50f
10:30 20 24 mph 1026.8mb 52f 49f
10:24 14 22 mph 1026.9mb 52f 49f
10:18 15 20 mph 1027mb 52f 49f
10:12 16 20 mph 1027.1mb 52f 49f
10:06 14 18 mph 1027.2mb 52f 49f
10:00 15 18 mph 1027.3mb 52f 48f
9:36 13 17 mph 1027.8mb 52f 47f
9:30 11 18 mph 1027.8mb 52f 47f
9:24 14 17 mph 1027.9mb 52f 46f
9:18 15 17 mph 1028mb 52f 46f
9:12 14 17 mph 1028.1mb 52f 46f
9:06 11 16 mph 1028.1mb 52f 46f
9:00 10 14 mph 1028.2mb 52f 46f
8:36 9 13 mph 1028.4mb 53f 46f
8:30 9 11 mph 1028.4mb 53f 46f
8:24 10 14 mph 1028.4mb 53f 45f
8:18 10 13 mph 1028.5mb 52f 45f
8:12 8 15 mph 1028.5mb 52f 45f
8:06 10 13 mph 1028.6mb 53f 45f
8:00 9 13 mph 1028.6mb 53f 45f
7:36 10 11 mph 1028.7mb 53f 45f
7:30 10 13 mph 1028.7mb 53f 45f
7:24 8 11 mph 1028.7mb 53f 45f
7:18 10 11 mph 1028.7mb 53f 45f
7:12 10 13 mph 1028.6mb 53f 45f
7:06 11 13 mph 1028.6mb 53f 45f
7:00 10 11 mph 1028.7mb 53f 45f
6:30 9 10 mph 1028.7mb 53f 45f
6:24 8 9 mph 1028.8mb 53f 45f
6:18 8 9 mph 1028.9mb 53f 45f
6:12 8 10 mph 1028.9mb 53f 45f
6:06 9 10 mph 1028.9mb 53f 45f
6:00 9 10 mph 1028.9mb 53f 45f
5:36 6 8 mph 1028.8mb 53f 46f
5:30 7 8 mph 1028.8mb 53f 46f
5:24 6
mph
1029mb 53f 46f
5:18 6 7 mph 1029mb 53f 46f
5:12 6 7 mph 1029mb 53f 46f
5:06 6
mph
1029mb 53f 46f
5:00 6 7 mph 1029mb 53f 46f
4:36 6 7 mph 1029mb 53f 47f
4:30 6
mph
1029.1mb 53f 47f
4:24 6 7 mph 1029.1mb 53f 47f
4:18 6 7 mph 1029.1mb 53f 47f
4:12 6 7 mph 1029.1mb 53f 47f
4:06 6 7 mph - - 47f
4:00 6 7 mph 1029.1mb 53f 47f
3:36 6 9 mph 1029.3mb 53f 47f
3:30 7 9 mph 1029.3mb 53f 47f
3:24 6 8 mph 1029.3mb 53f 47f
3:18 7 8 mph 1029.3mb 53f 47f
3:12 6 7 mph 1029.4mb 53f 47f
3:06 6 8 mph 1029.4mb 53f 47f
3:00 7
mph
1029.5mb 53f 48f
2:36 6 7 mph 1029.7mb 53f 47f
2:30 6 7 mph 1029.8mb 53f 47f
2:24 5 6 mph 1029.8mb 53f 48f
2:18 3 5 mph 1029.8mb 53f 48f
2:12 5
mph
1029.8mb 53f 48f
2:06 3 6 mph 1029.8mb 53f 48f
2:00 5
mph
1029.8mb 53f 48f
1:36 5
mph
1029.9mb 53f 48f
1:30 5 6 mph 1030mb 53f 48f
1:24 5 6 mph 1029.9mb 53f 48f
1:18 6 7 mph 1030mb 53f 48f
1:12 6 7 mph 1029.9mb 53f 48f
1:06 6
mph
1029.8mb 53f 49f
1:00 5
mph
1029.8mb 53f 49f
12:36 6 8 mph - - 49f
12:30 6 7 mph 1029.7mb 53f 49f
12:24 5 6 mph 1029.7mb 53f 49f
12:18 6 7 mph 1029.8mb 53f 50f
12:12 7 9 mph 1029.8mb 53f 49f
12:06 7 10 mph 1029.8mb 53f 49f
12:00 7 10 mph 1029.8mb 53f 49f
Do 04/20 11:36 9 10 mph 1029.8mb 53f 50f
11:30 7 8 mph 1029.8mb 53f 50f
11:24 6 7 mph 1029.8mb 53f 50f
11:18 6 8 mph 1029.8mb 53f 50f
11:12 5 7 mph 1029.8mb 53f 50f
11:06 6 7 mph 1029.7mb 52f 50f
11:00 5 8 mph 1029.8mb 52f 50f
10:36 8 9 mph 1029.6mb 52f 50f
10:30 7 9 mph 1029.5mb 52f 50f
10:24 7 9 mph 1029.5mb 52f 50f
10:18 8 9 mph 1029.5mb 52f 50f
10:12 8 9 mph 1029.5mb 52f 50f
10:06 9 10 mph 1029.5mb 52f 50f
10:00 8 11 mph 1029.5mb 52f 50f
9:36 8 9 mph 1029.1mb 52f 50f
9:30 7 10 mph 1029mb 52f 50f
9:24 9 10 mph 1028.9mb 52f 50f
9:18 9 10 mph 1028.8mb 52f 50f
9:12 9 11 mph 1028.7mb 52f 50f
9:06 9 11 mph 1028.6mb 53f 50f
9:00 10 11 mph 1028.6mb 53f 50f
8:36 9 11 mph 1028.3mb 53f 50f
8:30 11 14 mph 1028.3mb 53f 50f
8:24 11 13 mph 1028.2mb 53f 50f
8:18 9 13 mph 1028.1mb 53f 50f
8:12 11 14 mph 1028.1mb 53f 50f
8:06 9 13 mph 1028mb 53f 50f
8:00 10 13 mph 1028mb 53f 50f
7:36 7 11 mph 1027.7mb 53f 50f
7:30 10 13 mph 1027.7mb 54f 50f
7:24 10 13 mph 1027.6mb 53f 50f
7:18 11 13 mph 1027.5mb 53f 50f
7:12 11 14 mph 1027.5mb 53f 51f
7:06 11 14 mph 1027.5mb 53f 50f
7:00 10 13 mph 1027.4mb 53f 50f
6:36 6 8 mph 1027.4mb 53f 50f
6:30 6 9 mph 1027.4mb 53f 50f
6:24 7 11 mph 1027.3mb 53f 49f
6:18 9 11 mph 1027.4mb 53f 49f
6:12 11 16 mph 1027.3mb 53f 49f
6:06 18 23 mph 1027.2mb 53f 49f
6:00 11 14 mph 1027.1mb 53f 51f
5:36 9 14 mph 1026.9mb 53f 51f
5:30 13 14 mph 1026.9mb 53f 51f
5:24 10 13 mph 1026.8mb 53f 51f
5:18 11 15 mph 1026.8mb 53f 51f
5:12 13 16 mph 1026.8mb 53f 51f
5:06 13 15 mph 1026.8mb 53f 51f
5:00 13 15 mph 1026.8mb 53f 51f
4:36 9 10 mph 1026.6mb 52f 52f
4:30 9 10 mph 1026.5mb 52f 51f
4:24 8 11 mph 1026.4mb 52f 52f
4:18 9 10 mph 1026.4mb 52f 51f
4:12 9 11 mph 1026.4mb 52f 51f
4:06 10 13 mph 1026.4mb 52f 51f
4:00 11 14 mph 1026.3mb 52f 50f
3:36 16 18 mph 1026mb 52f 51f
3:30 16 20 mph 1025.9mb 52f 51f
3:24 14 17 mph 1025.9mb 52f 51f
3:18 14 16 mph 1025.8mb 52f 52f
3:12 15 17 mph 1025.7mb 52f 51f
3:06 14 18 mph 1025.7mb 52f 52f
3:00 13 17 mph 1025.6mb 52f 51f
2:36 15 18 mph 1025.4mb 52f 51f
2:30 15 17 mph 1025.2mb 52f 51f
2:24 15 18 mph 1025.1mb 52f 51f
2:18 16 18 mph 1025mb 52f 51f
2:12 14 16 mph 1024.9mb 52f 51f
2:06 13 17 mph 1024.9mb 52f 52f
2:00 13 16 mph 1024.8mb 52f 51f
1:36 11 15 mph 1024.6mb 52f 51f
1:30 11 15 mph 1024.5mb 52f 51f
1:24 9 14 mph 1024.5mb 52f 51f
1:18 11 15 mph 1024.5mb 52f 51f
1:12 10 15 mph 1024.5mb 52f 51f
1:06 14 16 mph 1024.5mb 52f 51f
1:00 14 16 mph 1024.5mb 52f 50f
12:36 13 17 mph 1024.2mb 52f 51f
12:30 13 15 mph 1024.1mb 52f 51f
12:24 13 17 mph 1024mb 52f 51f
12:18 14 18 mph 1024mb 52f 50f
12:12 15 18 mph 1023.9mb 52f 51f
12:06 15 18 mph 1023.8mb 52f 51f
12:00 10 14 mph 1023.8mb 52f 52f
11:36 10 14 mph 1023.8mb 52f 50f